createdAt,value
2023-04-15T00:00:08.387Z,25.93
2023-04-15T00:02:40.966Z,26.08
2023-04-15T00:05:09.881Z,25.98
2023-04-15T00:07:37.835Z,26.06
2023-04-15T00:10:09.257Z,26.12
2023-04-15T00:12:37.638Z,26.15
2023-04-15T00:15:06.747Z,25.96
2023-04-15T00:17:34.810Z,26.02
2023-04-15T00:20:03.764Z,26.09
2023-04-15T00:22:32.403Z,26.21
2023-04-15T00:25:00.405Z,26.15
2023-04-15T00:27:29.831Z,26.17
2023-04-15T00:29:58.268Z,26.27
2023-04-15T00:32:26.341Z,26.02
2023-04-15T00:34:54.275Z,26.21
2023-04-15T00:37:22.426Z,26.31
2023-04-15T00:39:50.475Z,26.18
2023-04-15T00:42:19.834Z,26.19
2023-04-15T00:44:51.498Z,26.22
2023-04-15T00:47:21.451Z,26.14
2023-04-15T00:49:49.398Z,26.19
2023-04-15T00:52:17.474Z,26.43
2023-04-15T00:54:45.458Z,26.13
2023-04-15T00:57:13.463Z,26.21
2023-04-15T00:59:41.517Z,26.15
2023-04-15T01:02:11.245Z,26.32
2023-04-15T01:04:39.578Z,26.30
2023-04-15T01:07:07.501Z,26.25
2023-04-15T01:09:35.626Z,26.32
2023-04-15T01:12:04.156Z,26.42
2023-04-15T01:14:32.710Z,26.24
2023-04-15T01:17:00.812Z,26.35
2023-04-15T01:19:30.166Z,26.40
2023-04-15T01:21:58.681Z,26.52
2023-04-15T01:24:28.287Z,26.31
2023-04-15T01:26:57.791Z,26.41
2023-04-15T01:29:25.831Z,26.52
2023-04-15T01:31:55.030Z,26.41
2023-04-15T01:34:23.329Z,26.41
2023-04-15T01:36:55.188Z,26.35
2023-04-15T01:39:23.493Z,26.44
2023-04-15T01:41:51.421Z,26.47
2023-04-15T01:44:21.055Z,26.57
2023-04-15T01:46:49.733Z,26.49
2023-04-15T01:49:18.091Z,26.54
2023-04-15T01:51:46.070Z,26.52
2023-04-15T01:54:14.317Z,26.43
2023-04-15T01:56:42.284Z,26.50
2023-04-15T01:59:11.020Z,26.49
2023-04-15T02:01:40.952Z,26.46
2023-04-15T02:04:16.414Z,26.43
2023-04-15T02:06:44.763Z,26.59
2023-04-15T02:09:13.593Z,26.70
2023-04-15T02:11:41.667Z,26.65
2023-04-15T02:14:09.713Z,26.57
2023-04-15T02:16:37.687Z,26.76
2023-04-15T02:19:08.101Z,26.68
2023-04-15T02:21:38.882Z,26.58
2023-04-15T02:24:07.482Z,26.64
2023-04-15T02:26:35.458Z,26.55
2023-04-15T02:29:03.590Z,26.77
2023-04-15T02:31:34.092Z,26.57
2023-04-15T02:34:04.311Z,26.84
2023-04-15T02:36:34.612Z,26.84
2023-04-15T02:39:02.896Z,26.75
2023-04-15T02:41:31.314Z,26.66
2023-04-15T02:43:59.763Z,26.71
2023-04-15T02:46:30.253Z,27.07
2023-04-15T02:49:00.360Z,26.85
2023-04-15T02:51:33.401Z,26.89
2023-04-15T02:54:01.689Z,26.85
2023-04-15T02:56:31.442Z,26.65
2023-04-15T02:58:59.669Z,26.91
2023-04-15T03:01:27.777Z,26.84
2023-04-15T03:03:55.882Z,26.94
2023-04-15T03:06:24.710Z,26.81
2023-04-15T03:08:54.093Z,26.80
2023-04-15T03:11:22.737Z,26.86
2023-04-15T03:13:50.819Z,26.83
2023-04-15T03:16:30.787Z,26.91
2023-04-15T03:18:59.888Z,26.97
2023-04-15T03:21:28.201Z,26.79
2023-04-15T03:23:58.410Z,26.80
2023-04-15T03:26:29.258Z,26.78
2023-04-15T03:29:01.096Z,27.07
2023-04-15T03:31:29.704Z,27.02
2023-04-15T03:33:57.720Z,26.76
2023-04-15T03:36:25.911Z,26.89
2023-04-15T03:38:54.026Z,26.94
2023-04-15T03:41:23.594Z,26.83
2023-04-15T03:43:52.105Z,26.79
2023-04-15T03:46:20.120Z,26.99
2023-04-15T03:48:48.426Z,27.02
2023-04-15T03:51:16.492Z,27.09
2023-04-15T03:53:44.564Z,26.80
2023-04-15T03:56:12.547Z,27.03
2023-04-15T03:58:41.888Z,26.82
2023-04-15T04:01:09.866Z,26.99
2023-04-15T04:03:38.326Z,26.92
2023-04-15T04:06:06.690Z,26.83
2023-04-15T04:08:34.655Z,26.91
2023-04-15T04:11:02.593Z,26.84
2023-04-15T04:13:30.661Z,26.79
2023-04-15T04:16:00.009Z,26.92
2023-04-15T04:18:27.993Z,26.80
2023-04-15T04:20:56.515Z,26.90
2023-04-15T04:23:24.754Z,26.72
2023-04-15T04:25:52.867Z,26.79
2023-04-15T04:28:20.873Z,26.79
2023-04-15T04:30:48.920Z,26.89
2023-04-15T04:33:18.248Z,27.06
2023-04-15T04:35:46.353Z,26.79
2023-04-15T04:38:14.423Z,26.90
2023-04-15T04:40:42.401Z,26.99
2023-04-15T04:43:10.612Z,26.92
2023-04-15T04:45:38.633Z,26.90
2023-04-15T04:48:08.745Z,26.96
2023-04-15T04:50:38.128Z,26.88
2023-04-15T04:53:06.092Z,26.82
2023-04-15T04:55:36.949Z,26.81
2023-04-15T04:58:05.101Z,26.71
2023-04-15T05:00:33.070Z,26.96
2023-04-15T05:03:01.170Z,26.61
2023-04-15T05:05:29.174Z,26.76
2023-04-15T05:07:58.584Z,26.57
2023-04-15T05:10:26.541Z,26.63
2023-04-15T05:12:54.587Z,26.57
2023-04-15T05:15:22.758Z,26.43
2023-04-15T05:17:50.902Z,26.63
2023-04-15T05:20:19.173Z,26.51
2023-04-15T05:22:47.287Z,26.56
2023-04-15T05:25:16.952Z,26.39
2023-04-15T05:27:45.410Z,26.50
2023-04-15T05:30:13.820Z,26.50
2023-04-15T05:32:41.924Z,26.20
2023-04-15T05:35:10.092Z,26.45
2023-04-15T05:37:38.188Z,26.11
2023-04-15T05:40:06.751Z,26.03
2023-04-15T05:42:36.429Z,26.29
2023-04-15T05:45:05.586Z,25.91
2023-04-15T05:47:33.517Z,25.98
2023-04-15T05:50:01.601Z,25.93
2023-04-15T05:52:29.594Z,25.75
2023-04-15T05:54:57.694Z,26.00
2023-04-15T05:57:25.675Z,25.96
2023-04-15T05:59:57.279Z,25.85
2023-04-15T06:02:25.428Z,25.91
2023-04-15T06:04:53.846Z,25.62
2023-04-15T06:07:21.870Z,25.73
2023-04-15T06:09:49.848Z,25.45
2023-04-15T06:12:17.831Z,25.54
2023-04-15T06:14:45.806Z,25.81
2023-04-15T06:17:18.397Z,25.35
2023-04-15T06:19:46.460Z,25.39
2023-04-15T06:22:14.384Z,25.38
2023-04-15T06:24:42.443Z,25.52
2023-04-15T06:27:10.495Z,25.44
2023-04-15T06:29:38.529Z,25.07
2023-04-15T06:32:06.946Z,25.47
2023-04-15T06:34:36.493Z,25.08
2023-04-15T06:37:06.224Z,25.08
2023-04-15T06:39:34.444Z,25.51
2023-04-15T06:42:03.406Z,25.39
2023-04-15T06:44:33.275Z,24.96
2023-04-15T06:47:02.226Z,25.20
2023-04-15T06:49:30.236Z,25.13
2023-04-15T06:52:00.610Z,25.19
2023-04-15T06:54:28.788Z,24.89
2023-04-15T06:56:56.719Z,25.00
2023-04-15T06:59:25.264Z,24.98
2023-04-15T07:01:53.288Z,24.71
2023-04-15T07:04:21.327Z,24.55
2023-04-15T07:06:49.256Z,24.92
2023-04-15T07:09:18.616Z,24.44
2023-04-15T07:11:46.565Z,24.84
2023-04-15T07:14:14.577Z,24.84
2023-04-15T07:16:42.487Z,24.60
2023-04-15T07:19:10.723Z,24.46
2023-04-15T07:21:41.243Z,24.70
2023-04-15T07:24:10.533Z,24.68
2023-04-15T07:26:39.844Z,24.50
2023-04-15T07:29:07.847Z,24.42
2023-04-15T07:31:36.856Z,24.43
2023-04-15T07:34:05.240Z,24.23
2023-04-15T07:36:33.181Z,24.31
2023-04-15T07:39:02.302Z,24.43
2023-04-15T07:41:30.920Z,24.26
2023-04-15T07:44:00.466Z,24.26
2023-04-15T07:46:28.557Z,24.36
2023-04-15T07:48:56.464Z,24.69
2023-04-15T07:51:24.899Z,24.32
2023-04-15T07:53:53.249Z,24.30
2023-04-15T07:56:21.872Z,24.68
2023-04-15T07:58:49.951Z,24.53
2023-04-15T08:01:19.605Z,24.46
2023-04-15T08:03:48.575Z,24.23
2023-04-15T08:06:16.653Z,24.56
2023-04-15T08:08:44.643Z,24.55
2023-04-15T08:11:12.787Z,24.57
2023-04-15T08:13:40.781Z,24.31
2023-04-15T08:16:21.385Z,24.47
2023-04-15T08:18:50.373Z,24.21
2023-04-15T08:21:19.465Z,24.32
2023-04-15T08:23:50.193Z,23.96
2023-04-15T08:26:18.863Z,23.91
2023-04-15T08:28:47.512Z,23.87
2023-04-15T08:31:16.991Z,23.92
2023-04-15T08:33:46.975Z,23.96
2023-04-15T08:36:15.072Z,23.88
2023-04-15T08:38:43.129Z,23.75
2023-04-15T08:41:23.689Z,24.21
2023-04-15T08:43:55.598Z,24.18
2023-04-15T08:46:24.469Z,23.99
2023-04-15T08:48:57.627Z,24.24
2023-04-15T08:51:27.237Z,24.16
2023-04-15T08:53:56.268Z,24.18
2023-04-15T08:56:26.780Z,24.24
2023-04-15T08:58:55.188Z,24.19
2023-04-15T09:01:24.286Z,23.53
2023-04-15T09:03:54.702Z,23.54
2023-04-15T09:06:23.853Z,23.81
2023-04-15T09:08:53.106Z,23.71
2023-04-15T09:11:23.176Z,23.66
2023-04-15T09:13:51.536Z,23.36
2023-04-15T09:16:20.328Z,23.21
2023-04-15T09:18:48.331Z,23.06
2023-04-15T09:21:19.274Z,23.17
2023-04-15T09:23:58.781Z,23.48
2023-04-15T09:26:34.644Z,23.38
2023-04-15T09:29:07.889Z,23.27
2023-04-15T09:31:36.811Z,23.53
2023-04-15T09:34:04.963Z,23.99
2023-04-15T09:36:53.348Z,24.73
2023-04-15T09:39:21.542Z,25.40
2023-04-15T09:42:06.697Z,26.87
2023-04-15T09:44:34.802Z,27.08
2023-04-15T09:47:02.926Z,26.80
2023-04-15T09:49:31.027Z,27.04
2023-04-15T09:52:05.668Z,26.80
2023-04-15T09:54:36.293Z,26.30
2023-04-15T09:57:08.288Z,26.46
2023-04-15T09:59:36.618Z,26.41
2023-04-15T10:02:07.628Z,25.88
2023-04-15T10:04:38.076Z,25.82
2023-04-15T10:07:09.653Z,25.69
2023-04-15T10:09:39.123Z,25.49
2023-04-15T10:12:07.394Z,24.79
2023-04-15T10:14:39.047Z,24.88
2023-04-15T10:17:08.957Z,24.53
2023-04-15T10:19:38.756Z,24.84
2023-04-15T10:22:08.869Z,26.34
2023-04-15T10:24:37.328Z,26.61
2023-04-15T10:27:06.876Z,26.72
2023-04-15T10:29:35.577Z,27.46
2023-04-15T10:32:04.723Z,27.34
2023-04-15T10:34:33.922Z,27.02
2023-04-15T10:37:04.540Z,26.88
2023-04-15T10:39:45.201Z,26.74
2023-04-15T10:42:15.352Z,26.30
2023-04-15T10:44:44.915Z,26.23
2023-04-15T10:47:15.426Z,25.90
2023-04-15T10:49:49.090Z,25.84
2023-04-15T10:52:18.688Z,25.61
2023-04-15T10:54:48.050Z,25.20
2023-04-15T10:57:22.500Z,24.86
2023-04-15T11:00:11.460Z,24.63
2023-04-15T11:02:44.920Z,24.84
2023-04-15T11:05:13.704Z,24.47
2023-04-15T11:07:50.963Z,24.20
2023-04-15T11:10:56.599Z,24.64
2023-04-15T11:13:30.491Z,24.66
2023-04-15T11:16:01.622Z,24.81
2023-04-15T11:18:34.946Z,24.48
2023-04-15T11:21:05.605Z,24.49
2023-04-15T11:23:39.254Z,24.38
2023-04-15T11:26:11.935Z,24.10
2023-04-15T11:28:41.924Z,23.62
2023-04-15T11:31:12.106Z,23.72
2023-04-15T11:33:48.038Z,23.38
2023-04-15T11:36:16.057Z,23.60
2023-04-15T11:38:45.943Z,23.28
2023-04-15T11:41:15.609Z,22.92
2023-04-15T11:43:43.991Z,23.35
2023-04-15T11:46:12.066Z,23.22
2023-04-15T11:48:44.635Z,23.27
2023-04-15T11:51:13.691Z,23.16
2023-04-15T11:53:43.481Z,23.00
2023-04-15T11:56:12.483Z,22.68
2023-04-15T11:58:43.389Z,22.60
2023-04-15T12:01:11.862Z,22.83
2023-04-15T12:03:41.704Z,22.49
2023-04-15T12:06:16.661Z,22.70
2023-04-15T12:08:54.095Z,22.44
2023-04-15T12:11:23.296Z,22.50
2023-04-15T12:13:52.611Z,22.83
2023-04-15T12:16:20.941Z,22.84
2023-04-15T12:18:51.892Z,22.37
2023-04-15T12:21:20.972Z,22.63
2023-04-15T12:23:52.916Z,22.52
2023-04-15T12:26:28.304Z,22.70
2023-04-15T12:29:02.210Z,23.09
2023-04-15T12:31:30.493Z,22.93
2023-04-15T12:33:59.154Z,23.15
2023-04-15T12:36:27.289Z,23.21
2023-04-15T12:38:55.506Z,22.76
2023-04-15T12:41:24.408Z,22.99
2023-04-15T12:43:52.388Z,23.29
2023-04-15T12:46:21.981Z,23.02
2023-04-15T12:48:49.956Z,23.99
2023-04-15T12:51:17.930Z,24.74
2023-04-15T12:53:45.916Z,24.78
2023-04-15T12:56:13.870Z,24.59
2023-04-15T12:58:41.804Z,24.77
2023-04-15T13:01:10.211Z,24.76
2023-04-15T13:03:39.816Z,24.65
2023-04-15T13:06:08.287Z,24.55
2023-04-15T13:08:38.491Z,24.29
2023-04-15T13:11:08.831Z,24.04
2023-04-15T13:13:36.833Z,24.21
2023-04-15T13:16:05.306Z,23.94
2023-04-15T13:18:34.809Z,23.79
2023-04-15T13:21:05.433Z,23.91
2023-04-15T13:23:33.429Z,23.84
2023-04-15T13:26:01.398Z,23.61
2023-04-15T13:28:29.564Z,23.85
2023-04-15T13:30:57.579Z,23.82
2023-04-15T13:33:25.563Z,23.56
2023-04-15T13:35:53.594Z,23.47
2023-04-15T13:38:22.873Z,23.56
2023-04-15T13:40:51.016Z,23.45
2023-04-15T13:43:19.170Z,23.18
2023-04-15T13:45:47.992Z,23.00
2023-04-15T13:48:16.236Z,23.11
2023-04-15T13:50:45.530Z,22.92
2023-04-15T13:53:13.512Z,22.94
2023-04-15T13:55:43.597Z,22.55
2023-04-15T13:58:12.238Z,22.90
2023-04-15T14:00:40.489Z,22.47
2023-04-15T14:03:08.547Z,22.78
2023-04-15T14:05:36.596Z,22.35
2023-04-15T14:08:04.633Z,22.47
2023-04-15T14:10:32.699Z,22.74
2023-04-15T14:13:02.016Z,22.68
2023-04-15T14:15:30.075Z,22.41
2023-04-15T14:17:58.876Z,22.43
2023-04-15T14:20:26.847Z,22.23
2023-04-15T14:22:54.759Z,22.57
2023-04-15T14:25:32.775Z,22.59
2023-04-15T14:28:03.509Z,22.41
2023-04-15T14:30:31.932Z,22.32
2023-04-15T14:32:59.978Z,22.06
2023-04-15T14:35:28.056Z,22.47
2023-04-15T14:37:56.359Z,22.07
2023-04-15T14:40:24.583Z,21.99
2023-04-15T14:42:52.556Z,21.96
2023-04-15T14:45:21.994Z,21.81
2023-04-15T14:47:50.093Z,21.98
2023-04-15T14:50:18.652Z,21.64
2023-04-15T14:52:46.692Z,21.69
2023-04-15T14:55:15.112Z,21.98
2023-04-15T14:57:44.218Z,21.60
2023-04-15T15:00:15.953Z,21.70
2023-04-15T15:02:47.484Z,21.51
2023-04-15T15:05:16.302Z,21.47
2023-04-15T15:07:44.470Z,21.72
2023-04-15T15:10:12.735Z,21.65
2023-04-15T15:12:40.845Z,22.07
2023-04-15T15:15:25.086Z,22.38
2023-04-15T15:17:58.198Z,23.07
2023-04-15T15:20:26.661Z,23.59
2023-04-15T15:22:54.637Z,23.33
2023-04-15T15:25:22.853Z,23.72
2023-04-15T15:27:51.017Z,24.09
2023-04-15T15:30:19.277Z,24.00
2023-04-15T15:32:47.504Z,24.12
2023-04-15T15:35:17.215Z,24.46
2023-04-15T15:37:46.764Z,24.21
2023-04-15T15:40:15.200Z,24.07
2023-04-15T15:42:43.266Z,24.05
2023-04-15T15:45:12.033Z,24.16
2023-04-15T15:47:40.060Z,24.02
2023-04-15T15:50:08.967Z,23.94
2023-04-15T15:52:38.611Z,23.66
2023-04-15T15:55:07.489Z,23.69
2023-04-15T15:57:35.501Z,23.36
2023-04-15T16:02:59.838Z,23.67
2023-04-15T16:05:22.522Z,24.28
2023-04-15T16:07:51.943Z,24.32
2023-04-15T16:10:20.037Z,24.44
2023-04-15T16:12:48.156Z,24.28
2023-04-15T16:15:16.221Z,24.25
2023-04-15T16:17:44.287Z,24.56
2023-04-15T16:20:12.473Z,24.58
2023-04-15T16:22:40.469Z,24.77
2023-04-15T16:25:10.843Z,24.90
2023-04-15T16:27:54.652Z,25.03
2023-04-15T16:30:28.879Z,24.70
2023-04-15T16:32:57.847Z,25.08
2023-04-15T16:35:25.916Z,24.81
2023-04-15T16:37:53.895Z,24.90
2023-04-15T16:40:23.235Z,25.23
2023-04-15T16:42:51.643Z,25.14
2023-04-15T16:45:20.280Z,25.41
2023-04-15T16:47:48.262Z,25.21
2023-04-15T16:50:16.354Z,25.69
2023-04-15T16:52:44.470Z,25.78
2023-04-15T16:55:12.674Z,25.45
2023-04-15T16:58:01.157Z,25.53
2023-04-15T17:00:30.165Z,25.58
2023-04-15T17:02:58.205Z,25.60
2023-04-15T17:05:27.494Z,25.70
2023-04-15T17:07:55.812Z,25.94
2023-04-15T17:10:24.038Z,25.95
2023-04-15T17:12:53.355Z,25.96
2023-04-15T17:15:21.548Z,25.86
2023-04-15T17:17:49.892Z,25.86
2023-04-15T17:20:18.413Z,26.05
2023-04-15T17:22:46.744Z,25.94
2023-04-15T17:25:15.193Z,25.97
2023-04-15T17:27:43.260Z,26.06
2023-04-15T17:30:13.023Z,25.94
2023-04-15T17:32:41.117Z,26.08
2023-04-15T17:35:09.930Z,25.80
2023-04-15T17:37:38.808Z,25.83
2023-04-15T17:40:08.970Z,26.07
2023-04-15T17:42:37.111Z,25.69
2023-04-15T17:45:05.733Z,25.66
2023-04-15T17:47:35.411Z,25.69
2023-04-15T17:50:03.463Z,25.70
2023-04-15T17:52:31.413Z,25.98
2023-04-15T17:54:59.449Z,25.69
2023-04-15T17:57:27.388Z,25.78
2023-04-15T17:59:55.524Z,25.65
2023-04-15T18:02:23.630Z,26.05
2023-04-15T18:04:53.741Z,26.00
2023-04-15T18:07:21.845Z,25.50
2023-04-15T18:09:50.597Z,25.57
2023-04-15T18:12:18.749Z,25.97
2023-04-15T18:14:46.801Z,25.57
2023-04-15T18:17:15.304Z,25.96
2023-04-15T18:19:43.552Z,25.79
2023-04-15T18:22:13.049Z,26.14
2023-04-15T18:24:41.032Z,26.30
2023-04-15T18:27:09.020Z,26.21
2023-04-15T18:29:37.261Z,26.36
2023-04-15T18:32:05.541Z,26.85
2023-04-15T18:34:33.579Z,26.71
2023-04-15T18:37:02.067Z,26.99
2023-04-15T18:39:32.133Z,27.39
2023-04-15T18:42:00.225Z,27.58
2023-04-15T18:44:28.422Z,27.64
2023-04-15T18:46:56.716Z,27.52
2023-04-15T18:49:25.888Z,27.59
2023-04-15T18:51:54.121Z,27.76
2023-04-15T18:54:22.245Z,28.34
2023-04-15T18:56:51.872Z,28.49
2023-04-15T18:59:29.151Z,28.61
2023-04-15T19:01:59.074Z,28.46
2023-04-15T19:04:28.812Z,27.69
2023-04-15T19:06:57.367Z,27.28
2023-04-15T19:09:25.443Z,26.59
2023-04-15T19:11:54.821Z,26.08
2023-04-15T19:14:23.276Z,25.60
2023-04-15T19:16:51.262Z,25.17
2023-04-15T19:19:19.314Z,24.85
2023-04-15T19:21:49.718Z,24.46
2023-04-15T19:24:18.128Z,24.43
2023-04-15T19:26:49.412Z,24.04
2023-04-15T19:29:19.020Z,24.06
2023-04-15T19:31:47.017Z,24.05
2023-04-15T19:34:14.938Z,24.03
2023-04-15T19:36:43.417Z,24.22
2023-04-15T19:39:11.403Z,23.86
2023-04-15T19:41:39.763Z,23.67
2023-04-15T19:44:08.136Z,24.10
2023-04-15T19:46:37.689Z,23.90
2023-04-15T19:49:05.995Z,23.59
2023-04-15T19:51:34.579Z,23.52
2023-04-15T19:54:02.634Z,23.74
2023-04-15T19:56:32.845Z,23.27
2023-04-15T19:59:02.336Z,23.20
2023-04-15T20:01:30.580Z,23.41
2023-04-15T20:04:00.695Z,23.23
2023-04-15T20:06:28.886Z,23.31
2023-04-15T20:08:56.885Z,23.34
2023-04-15T20:12:47.510Z,23.31
2023-04-15T20:14:17.595Z,23.31
2023-04-15T20:16:45.697Z,23.09
2023-04-15T20:19:15.066Z,22.91
2023-04-15T20:21:43.092Z,22.51
2023-04-15T20:24:11.279Z,22.58
2023-04-15T20:26:39.265Z,22.37
2023-04-15T20:29:07.532Z,22.29
2023-04-15T20:31:36.216Z,22.70
2023-04-15T20:34:04.240Z,22.63
2023-04-15T20:36:33.684Z,22.10
2023-04-15T20:39:01.773Z,22.26
2023-04-15T20:41:30.032Z,22.29
2023-04-15T20:43:57.967Z,21.92
2023-04-15T20:46:27.390Z,21.95
2023-04-15T20:48:56.096Z,21.85
2023-04-15T20:51:24.060Z,22.09
2023-04-15T20:53:53.372Z,22.02
2023-04-15T20:56:21.522Z,21.94
2023-04-15T20:58:49.582Z,21.64
2023-04-15T21:01:17.647Z,21.81
2023-04-15T21:03:45.840Z,21.55
2023-04-15T21:06:13.926Z,21.63
2023-04-15T21:08:42.113Z,21.84
2023-04-15T21:11:11.645Z,21.96
2023-04-15T21:13:39.722Z,22.00
2023-04-15T21:16:07.796Z,21.58
2023-04-15T21:18:35.896Z,21.94
2023-04-15T21:21:04.012Z,21.76
2023-04-15T21:23:35.834Z,21.60
2023-04-15T21:26:04.098Z,21.90
2023-04-15T21:28:34.111Z,21.64
2023-04-15T21:31:02.166Z,21.63
2023-04-15T21:33:30.117Z,21.90
2023-04-15T21:35:58.249Z,21.91
2023-04-15T21:38:26.387Z,21.94
2023-04-15T21:40:55.181Z,21.97
2023-04-15T21:43:25.606Z,21.54
2023-04-15T21:46:24.090Z,21.83
2023-04-15T21:48:43.225Z,21.63
2023-04-15T21:51:11.201Z,21.53
2023-04-15T21:53:39.331Z,21.70
2023-04-15T21:56:08.972Z,21.54
2023-04-15T21:58:37.440Z,21.91
2023-04-15T22:01:06.959Z,21.90
2023-04-15T22:03:36.233Z,21.87
2023-04-15T22:06:05.181Z,21.71
2023-04-15T22:08:38.664Z,21.68
2023-04-15T22:11:10.017Z,21.65
2023-04-15T22:13:37.953Z,22.06
2023-04-15T22:16:07.383Z,21.55
2023-04-15T22:18:35.442Z,21.96
2023-04-15T22:21:03.396Z,22.00
2023-04-15T22:23:31.404Z,21.89
2023-04-15T22:26:00.573Z,21.90
2023-04-15T22:28:28.625Z,22.16
2023-04-15T22:30:58.050Z,22.15
2023-04-15T22:33:27.385Z,21.80
2023-04-15T22:35:55.438Z,22.20
2023-04-15T22:38:23.520Z,22.05
2023-04-15T22:40:53.853Z,22.10
2023-04-15T22:43:21.823Z,22.04
2023-04-15T22:45:51.433Z,22.02
2023-04-15T22:48:19.722Z,22.37
2023-04-15T22:50:49.438Z,22.31
2023-04-15T22:53:17.769Z,22.11
2023-04-15T22:55:46.646Z,22.40
2023-04-15T22:58:14.657Z,22.05
2023-04-15T23:00:42.956Z,21.93
2023-04-15T23:03:11.244Z,22.08
2023-04-15T23:05:40.112Z,22.36
2023-04-15T23:08:09.787Z,22.43
2023-04-15T23:10:39.985Z,22.52
2023-04-15T23:13:08.137Z,22.25
2023-04-15T23:15:36.094Z,22.18
2023-04-15T23:18:04.149Z,22.41
2023-04-15T23:20:32.142Z,22.48
2023-04-15T23:23:00.166Z,22.56
2023-04-15T23:25:29.585Z,22.61
2023-04-15T23:27:57.517Z,22.41
2023-04-15T23:30:25.787Z,22.50
2023-04-15T23:32:53.809Z,22.59
2023-04-15T23:35:21.905Z,22.35
2023-04-15T23:37:50.058Z,22.50
2023-04-15T23:40:18.129Z,22.76
2023-04-15T23:42:47.453Z,22.56
2023-04-15T23:45:15.410Z,22.85
2023-04-15T23:47:43.401Z,22.87
2023-04-15T23:50:12.270Z,22.68
2023-04-15T23:52:40.447Z,22.88
2023-04-15T23:55:09.678Z,22.94
2023-04-15T23:57:37.683Z,22.90
